Terminal Aerodrome Forecast
Issued by NWS El Paso, TX

Home | Current Version | Previous Version | Text Only | Print | Product List | Glossary On
Versions: 1 2 3 4 5 6 7 8 9 10 11 12 13 14 15
000
FTUS44 KEPZ 040544
TAFELP
TAF
KELP 040544Z 0406/0506 08010KT P6SM SCT070 BKN120
     FM041600 11008KT P6SM FEW070 SCT160
     FM050000 18012KT P6SM VCTS SCT070CB BKN250=

USA.gov is the U.S. government's official web portal to all federal, state and local government web resources and services.